createdAt,value
2023-04-20T00:02:04.135Z,19.23
2023-04-20T00:04:31.083Z,23.75
2023-04-20T00:06:58.727Z,23.27
2023-04-20T00:09:27.055Z,22.38
2023-04-20T00:11:54.130Z,11.75
2023-04-20T00:14:21.353Z,12.05
2023-04-20T00:16:49.105Z,15.02
2023-04-20T00:21:51.331Z,10.13
2023-04-20T00:24:18.215Z,7.07
2023-04-20T00:26:45.081Z,7.25
2023-04-20T00:29:11.947Z,14.30
2023-04-20T00:31:38.755Z,8.70
2023-04-20T00:34:05.754Z,7.07
2023-04-20T00:36:32.674Z,6.95
2023-04-20T00:38:59.650Z,7.95
2023-04-20T00:41:26.603Z,10.95
2023-04-20T00:43:54.661Z,9.98
2023-04-20T00:46:22.114Z,9.18
2023-04-20T00:48:53.938Z,7.72
2023-04-20T00:51:23.960Z,6.93
2023-04-20T00:53:51.286Z,6.72
2023-04-20T00:56:19.537Z,8.77
2023-04-20T00:58:47.160Z,5.38
2023-04-20T01:01:17.653Z,5.80
2023-04-20T01:03:45.849Z,6.43
2023-04-20T01:06:16.078Z,6.28
2023-04-20T01:08:51.546Z,4.68
2023-04-20T01:11:18.659Z,4.47
2023-04-20T01:13:46.066Z,4.97
2023-04-20T01:16:14.004Z,5.82
2023-04-20T01:18:47.308Z,6.28
2023-04-20T01:21:16.757Z,4.88
2023-04-20T01:26:22.415Z,5.18
2023-04-20T01:28:49.356Z,8.50
2023-04-20T01:33:52.006Z,4.88
2023-04-20T01:36:19.775Z,5.40
2023-04-20T01:38:47.725Z,4.45
2023-04-20T01:41:14.989Z,5.30
2023-04-20T01:43:42.105Z,4.13
2023-04-20T01:57:10.249Z,7.10
2023-04-20T01:59:37.315Z,3.28
2023-04-20T02:02:04.357Z,5.30
2023-04-20T02:04:31.807Z,4.47
2023-04-20T02:14:57.576Z,7.45
2023-04-20T02:17:25.181Z,11.73
2023-04-20T02:19:52.114Z,7.78
2023-04-20T02:22:19.820Z,10.25
2023-04-20T02:24:47.052Z,9.25
2023-04-20T02:27:14.318Z,10.90
2023-04-20T02:29:41.536Z,8.55
2023-04-20T02:32:08.369Z,12.30
2023-04-20T02:34:35.943Z,8.60
2023-04-20T02:37:02.792Z,8.77
2023-04-20T02:39:29.651Z,8.73
2023-04-20T02:41:56.948Z,9.15
2023-04-20T02:44:24.015Z,8.23
2023-04-20T03:00:25.513Z,16.83
2023-04-20T03:02:52.688Z,11.32
2023-04-20T03:11:25.769Z,6.90
2023-04-20T03:17:02.011Z,10.30
2023-04-20T03:19:28.995Z,11.10
2023-04-20T03:24:41.534Z,17.63
2023-04-20T03:27:08.524Z,16.63
2023-04-20T03:29:35.463Z,21.52
2023-04-20T03:37:29.830Z,13.95
2023-04-20T03:39:56.740Z,9.10
2023-04-20T03:42:23.762Z,7.13
2023-04-20T03:44:50.647Z,8.20
2023-04-20T03:49:52.799Z,5.25
2023-04-20T03:54:55.072Z,8.20
2023-04-20T04:10:58.620Z,3.60
2023-04-20T04:13:26.002Z,3.08
2023-04-20T04:21:23.760Z,5.55
2023-04-20T04:23:51.040Z,4.63
2023-04-20T04:28:54.078Z,5.47
2023-04-20T04:31:21.760Z,5.03
2023-04-20T04:33:49.726Z,6.88
2023-04-20T04:36:17.580Z,3.95
2023-04-20T04:38:48.005Z,5.43
2023-04-20T04:41:15.476Z,5.18
2023-04-20T04:43:45.880Z,6.50
2023-04-20T04:48:51.696Z,5.13
2023-04-20T04:51:19.067Z,4.38
2023-04-20T04:53:47.654Z,4.57
2023-04-20T04:56:15.180Z,5.30
2023-04-20T04:58:44.604Z,6.68
2023-04-20T05:12:23.492Z,4.75
2023-04-20T05:14:51.469Z,7.40
2023-04-20T05:17:19.026Z,5.30
2023-04-20T05:19:46.379Z,5.50
2023-04-20T05:22:13.429Z,5.18
2023-04-20T05:24:40.718Z,4.93
2023-04-20T05:27:08.883Z,5.45
2023-04-20T05:32:12.944Z,5.93
2023-04-20T05:34:40.809Z,4.20
2023-04-20T05:37:08.005Z,5.97
2023-04-20T05:39:35.324Z,7.78
2023-04-20T05:42:06.083Z,8.07
2023-04-20T05:55:36.952Z,11.52
2023-04-20T05:58:04.122Z,14.98
2023-04-20T06:05:51.896Z,13.43
2023-04-20T06:08:19.286Z,11.15
2023-04-20T06:10:53.968Z,11.48
2023-04-20T06:19:06.876Z,7.45
2023-04-20T06:27:57.917Z,11.77
2023-04-20T06:30:25.015Z,12.07
2023-04-20T06:38:52.183Z,18.55
2023-04-20T06:41:19.879Z,10.65
2023-04-20T06:43:47.313Z,12.57
2023-04-20T07:46:52.651Z,5.88
2023-04-20T07:55:33.298Z,6.22
2023-04-20T07:58:05.762Z,5.90
2023-04-20T08:09:06.262Z,4.65
2023-04-20T08:11:33.344Z,5.18
2023-04-20T08:14:00.432Z,6.60
2023-04-20T08:17:02.227Z,6.00
2023-04-20T08:19:29.398Z,4.90
2023-04-20T08:27:17.434Z,5.53
2023-04-20T08:29:44.573Z,3.95
2023-04-20T08:37:33.327Z,5.57
2023-04-20T08:40:00.430Z,6.20
2023-04-20T08:42:27.509Z,9.75
2023-04-20T08:44:54.586Z,5.35
2023-04-20T08:53:03.682Z,7.95
2023-04-20T08:58:43.163Z,6.05
2023-04-20T09:07:17.118Z,4.82
2023-04-20T09:09:57.933Z,5.72
2023-04-20T09:17:55.944Z,6.70
2023-04-20T09:23:25.839Z,6.57
2023-04-20T09:31:23.445Z,8.65
2023-04-20T09:34:03.913Z,6.85
2023-04-20T09:39:11.935Z,9.63
2023-04-20T09:41:40.375Z,8.82
2023-04-20T09:44:08.993Z,7.10
2023-04-20T09:46:38.254Z,7.47
2023-04-20T09:49:07.505Z,8.65
2023-04-20T09:51:37.070Z,5.93
2023-04-20T09:56:40.716Z,6.20
2023-04-20T10:02:15.063Z,7.20
2023-04-20T10:04:55.570Z,7.40
2023-04-20T10:11:07.694Z,9.20
2023-04-20T10:13:35.379Z,6.55
2023-04-20T10:16:02.439Z,6.95
2023-04-20T10:18:30.178Z,10.13
2023-04-20T10:21:09.753Z,6.15
2023-04-20T10:26:45.472Z,5.78
2023-04-20T10:29:24.958Z,6.97
2023-04-20T10:37:22.572Z,5.97
2023-04-20T10:39:49.742Z,7.03
2023-04-20T10:47:45.418Z,3.17
2023-04-20T10:50:24.972Z,4.55
2023-04-20T10:52:52.083Z,5.13
2023-04-20T10:55:21.431Z,4.45
2023-04-20T10:57:49.509Z,4.55
2023-04-20T11:00:17.429Z,8.93
2023-04-20T11:02:57.675Z,7.97
2023-04-20T11:05:27.674Z,7.90
2023-04-20T11:08:01.080Z,4.60
2023-04-20T11:10:42.335Z,5.00
2023-04-20T11:13:23.389Z,4.93
2023-04-20T11:15:51.005Z,6.75
2023-04-20T11:18:18.813Z,5.65
2023-04-20T11:20:53.916Z,4.72
2023-04-20T11:23:42.469Z,5.00
2023-04-20T11:26:10.072Z,3.28
2023-04-20T11:28:37.248Z,3.83
2023-04-20T11:31:04.748Z,4.03
2023-04-20T11:33:34.217Z,3.90
2023-04-20T11:36:02.285Z,5.30
2023-04-20T11:38:34.711Z,3.05
2023-04-20T11:41:04.958Z,4.25
2023-04-20T11:43:36.063Z,4.15
2023-04-20T11:46:03.377Z,3.60
2023-04-20T11:48:31.687Z,3.25
2023-04-20T11:50:59.275Z,4.65
2023-04-20T11:53:26.798Z,3.78
2023-04-20T11:55:55.728Z,2.58
2023-04-20T11:58:23.057Z,3.58
2023-04-20T12:00:49.937Z,4.75
2023-04-20T12:03:17.361Z,2.90
2023-04-20T12:05:44.587Z,3.10
2023-04-20T12:08:12.108Z,3.22
2023-04-20T12:10:40.250Z,2.78
2023-04-20T12:13:07.167Z,5.40
2023-04-20T12:15:34.093Z,3.00
2023-04-20T12:18:01.042Z,2.10
2023-04-20T12:20:28.886Z,2.85
2023-04-20T12:22:57.220Z,2.75
2023-04-20T12:25:25.876Z,2.22
2023-04-20T12:27:53.296Z,2.60
2023-04-20T12:30:20.261Z,2.92
2023-04-20T12:32:47.591Z,2.45
2023-04-20T12:35:14.811Z,5.82
2023-04-20T12:37:41.735Z,2.38
2023-04-20T12:40:09.052Z,1.40
2023-04-20T12:42:36.076Z,4.72
2023-04-20T12:45:03.399Z,1.88
2023-04-20T12:47:30.393Z,4.43
2023-04-20T12:49:57.344Z,3.28
2023-04-20T12:52:24.647Z,2.22
2023-04-20T12:54:51.531Z,2.63
2023-04-20T12:57:18.410Z,1.88
2023-04-20T12:59:45.345Z,5.38
2023-04-20T13:02:12.633Z,4.20
2023-04-20T13:04:39.857Z,3.40
2023-04-20T13:07:07.252Z,1.70
2023-04-20T13:09:34.500Z,3.20
2023-04-20T13:12:01.884Z,2.78
2023-04-20T13:14:28.766Z,2.22
2023-04-20T13:16:55.995Z,2.58
2023-04-20T13:19:23.659Z,4.65
2023-04-20T13:21:50.615Z,2.85
2023-04-20T13:24:17.791Z,2.60
2023-04-20T13:26:44.937Z,2.17
2023-04-20T13:29:11.842Z,5.13
2023-04-20T13:31:39.008Z,3.08
2023-04-20T13:34:07.152Z,2.38
2023-04-20T13:36:34.258Z,4.57
2023-04-20T13:39:01.838Z,2.45
2023-04-20T13:41:28.681Z,2.13
2023-04-20T13:43:57.922Z,3.00
2023-04-20T13:46:25.023Z,2.00
2023-04-20T13:48:52.092Z,3.00
2023-04-20T13:51:19.517Z,2.10
2023-04-20T13:53:48.471Z,1.88
2023-04-20T13:56:16.614Z,2.72
2023-04-20T13:58:43.760Z,2.38
2023-04-20T14:01:13.134Z,3.25
2023-04-20T14:03:42.589Z,2.30
2023-04-20T14:06:10.468Z,3.78
2023-04-20T14:08:37.783Z,1.88
2023-04-20T14:11:04.805Z,2.50
2023-04-20T14:13:32.361Z,4.22
2023-04-20T14:15:59.317Z,2.60
2023-04-20T14:18:26.430Z,1.85
2023-04-20T14:20:54.626Z,2.00
2023-04-20T14:23:21.958Z,2.38
2023-04-20T14:25:48.914Z,2.33
2023-04-20T14:28:17.718Z,3.17
2023-04-20T14:30:48.544Z,3.75
2023-04-20T14:33:15.817Z,4.43
2023-04-20T14:35:43.028Z,3.45
2023-04-20T14:38:10.817Z,4.50
2023-04-20T14:40:38.036Z,2.55
2023-04-20T14:43:04.943Z,2.10
2023-04-20T14:45:31.808Z,4.43
2023-04-20T14:47:59.200Z,2.15
2023-04-20T14:50:27.628Z,3.33
2023-04-20T14:52:55.719Z,2.25
2023-04-20T14:55:25.726Z,2.60
2023-04-20T14:57:57.648Z,3.17
2023-04-20T15:00:27.944Z,3.42
2023-04-20T15:02:59.714Z,2.65
2023-04-20T15:05:27.871Z,3.30
2023-04-20T15:07:54.961Z,2.15
2023-04-20T15:10:21.977Z,3.33
2023-04-20T15:12:49.225Z,2.38
2023-04-20T15:15:17.046Z,4.22
2023-04-20T15:17:47.810Z,1.58
2023-04-20T15:20:15.516Z,1.67
2023-04-20T15:22:42.850Z,5.18
2023-04-20T15:25:10.257Z,3.60
2023-04-20T15:27:37.752Z,3.92
2023-04-20T15:30:05.436Z,3.38
2023-04-20T15:32:35.609Z,6.40
2023-04-20T15:35:02.942Z,2.25
2023-04-20T15:37:29.925Z,2.85
2023-04-20T15:39:57.060Z,1.77
2023-04-20T15:42:24.110Z,3.88
2023-04-20T15:44:51.041Z,2.45
2023-04-20T15:47:18.794Z,1.98
2023-04-20T15:49:45.954Z,4.15
2023-04-20T15:52:12.903Z,4.55
2023-04-20T15:54:40.266Z,4.80
2023-04-20T15:57:07.217Z,2.15
2023-04-20T15:59:34.175Z,3.35
2023-04-20T16:02:01.613Z,2.58
2023-04-20T16:04:28.701Z,3.55
2023-04-20T16:06:55.789Z,3.20
2023-04-20T16:09:23.812Z,3.17
2023-04-20T16:11:51.468Z,2.85
2023-04-20T16:14:18.677Z,2.75
2023-04-20T16:16:45.833Z,2.35
2023-04-20T16:19:15.884Z,2.88
2023-04-20T16:21:42.751Z,4.97
2023-04-20T16:24:10.036Z,2.15
2023-04-20T16:26:36.956Z,2.25
2023-04-20T16:29:03.893Z,2.65
2023-04-20T16:31:31.702Z,3.10
2023-04-20T16:33:58.984Z,4.30
2023-04-20T16:36:27.140Z,3.15
2023-04-20T16:38:54.444Z,2.25
2023-04-20T16:41:21.907Z,2.42
2023-04-20T16:43:49.205Z,2.78
2023-04-20T16:46:22.143Z,3.65
2023-04-20T16:48:50.777Z,3.55
2023-04-20T16:51:17.695Z,3.65
2023-04-20T16:53:45.446Z,3.85
2023-04-20T16:56:13.074Z,6.40
2023-04-20T16:58:40.406Z,3.25
2023-04-20T17:01:07.820Z,7.15
2023-04-20T17:03:35.391Z,5.35
2023-04-20T17:06:07.472Z,5.28
2023-04-20T17:08:34.798Z,2.90
2023-04-20T17:11:02.027Z,4.47
2023-04-20T17:13:28.960Z,3.05
2023-04-20T17:15:56.149Z,6.85
2023-04-20T17:18:23.523Z,6.72
2023-04-20T17:20:51.082Z,3.85
2023-04-20T17:23:18.765Z,4.72
2023-04-20T17:25:47.350Z,4.15
2023-04-20T17:28:14.742Z,5.15
2023-04-20T17:30:42.120Z,4.32
2023-04-20T17:33:12.213Z,4.68
2023-04-20T17:35:39.517Z,8.60
2023-04-20T17:38:06.620Z,6.80
2023-04-20T17:40:33.998Z,8.25
2023-04-20T17:43:01.970Z,9.50
2023-04-20T17:45:28.917Z,5.20
2023-04-20T17:47:55.994Z,5.93
2023-04-20T17:50:23.571Z,4.38
2023-04-20T17:56:03.011Z,3.95
2023-04-20T17:58:36.528Z,5.50
2023-04-20T18:01:03.668Z,7.15
2023-04-20T18:12:02.295Z,7.35
2023-04-20T18:14:29.264Z,7.00
2023-04-20T18:20:08.917Z,7.07
2023-04-20T18:22:57.278Z,7.55
2023-04-20T18:25:24.482Z,8.68
2023-04-20T18:27:51.389Z,8.15
2023-04-20T18:30:51.102Z,11.05
2023-04-20T18:36:07.254Z,6.60
2023-04-20T18:38:37.952Z,9.70
2023-04-20T18:44:17.093Z,8.00
2023-04-20T18:46:48.007Z,5.05
2023-04-20T18:52:28.022Z,6.47
2023-04-20T18:57:55.510Z,33.10
2023-04-20T19:00:22.584Z,32.85
2023-04-20T19:02:49.684Z,18.25
2023-04-20T19:05:17.157Z,14.13
2023-04-20T19:13:04.631Z,14.65
2023-04-20T19:15:31.752Z,17.85
2023-04-20T19:17:58.665Z,28.73
2023-04-20T19:20:26.150Z,21.75
2023-04-20T19:22:53.263Z,18.33
2023-04-20T19:28:32.211Z,17.52
2023-04-20T19:31:00.411Z,24.35
2023-04-20T19:36:03.631Z,22.77
2023-04-20T19:44:20.613Z,11.60
2023-04-20T19:47:23.409Z,14.80
2023-04-20T19:49:50.466Z,16.25
2023-04-20T19:52:17.569Z,13.93
2023-04-20T19:57:29.920Z,12.07
2023-04-20T20:00:17.549Z,13.75
2023-04-20T20:02:45.088Z,13.60
2023-04-20T20:05:12.802Z,14.02
2023-04-20T20:07:41.333Z,15.68
2023-04-20T20:10:08.527Z,15.68
2023-04-20T20:12:35.961Z,11.77
2023-04-20T20:15:04.130Z,10.70
2023-04-20T20:17:31.200Z,14.25
2023-04-20T20:19:58.561Z,16.50
2023-04-20T20:22:25.540Z,16.02
2023-04-20T20:24:54.777Z,14.65
2023-04-20T20:30:25.188Z,17.13
2023-04-20T20:32:52.315Z,12.90
2023-04-20T20:37:54.686Z,16.58
2023-04-20T20:43:34.930Z,13.82
2023-04-20T20:46:02.095Z,15.77
2023-04-20T20:48:29.116Z,12.20
2023-04-20T20:50:58.583Z,12.15
2023-04-20T20:53:25.959Z,12.75
2023-04-20T20:55:59.997Z,14.48
2023-04-20T20:58:26.989Z,13.10
2023-04-20T21:00:53.982Z,17.42
2023-04-20T21:03:21.842Z,15.32
2023-04-20T21:05:49.074Z,13.15
2023-04-20T21:14:01.988Z,14.93
2023-04-20T21:16:29.547Z,15.20
2023-04-20T21:18:56.902Z,16.48
2023-04-20T21:21:23.949Z,12.93
2023-04-20T21:23:51.390Z,13.38
2023-04-20T21:29:04.322Z,16.08
2023-04-20T21:31:32.196Z,13.70
2023-04-20T21:34:00.521Z,16.27
2023-04-20T21:36:27.943Z,15.07
2023-04-20T21:38:55.687Z,14.48
2023-04-20T21:41:22.510Z,16.98
2023-04-20T21:43:52.446Z,16.45
2023-04-20T21:46:19.455Z,15.40
2023-04-20T21:48:46.745Z,14.98
2023-04-20T21:53:49.383Z,13.50
2023-04-20T21:56:23.500Z,14.10
2023-04-20T21:58:50.559Z,12.48
2023-04-20T22:01:17.736Z,14.98
2023-04-20T22:09:05.697Z,13.05
2023-04-20T22:11:36.384Z,12.05
2023-04-20T22:14:04.497Z,10.82
2023-04-20T22:27:22.961Z,18.05
2023-04-20T22:29:49.922Z,22.70
2023-04-20T22:32:16.819Z,16.38
2023-04-20T22:34:43.643Z,15.82
2023-04-20T22:39:46.732Z,24.17
2023-04-20T22:42:13.709Z,18.90
2023-04-20T22:44:40.623Z,19.02
2023-04-20T22:47:07.745Z,24.00
2023-04-20T22:49:35.779Z,26.33
2023-04-20T22:52:02.815Z,20.98
2023-04-20T22:54:30.197Z,24.70
2023-04-20T22:56:58.827Z,20.20
2023-04-20T22:59:26.132Z,23.13
2023-04-20T23:01:53.437Z,23.08
2023-04-20T23:04:20.475Z,24.88
2023-04-20T23:06:47.350Z,21.75
2023-04-20T23:09:17.487Z,19.13
2023-04-20T23:11:47.185Z,21.75
2023-04-20T23:14:14.381Z,26.45
2023-04-20T23:16:41.364Z,23.25
2023-04-20T23:19:08.679Z,22.27
2023-04-20T23:21:35.569Z,25.08
2023-04-20T23:24:02.488Z,21.40
2023-04-20T23:26:29.458Z,22.17
2023-04-20T23:28:56.501Z,20.85
2023-04-20T23:31:23.825Z,23.60
2023-04-20T23:33:51.245Z,22.52
2023-04-20T23:36:18.081Z,22.80
2023-04-20T23:38:45.079Z,29.67
2023-04-20T23:41:13.588Z,22.65
2023-04-20T23:43:41.274Z,22.38
2023-04-20T23:46:08.690Z,24.58
2023-04-20T23:48:35.668Z,23.13
2023-04-20T23:51:04.117Z,27.15
2023-04-20T23:53:39.244Z,21.38
2023-04-20T23:56:07.324Z,19.05
